Time;durP1;ratioP1;P1;durP2;ratioP2;P2;SDS_P1;SDS_P2;PMS_P1;PMS_P2;Temp;Humidity;BMP_temperature;BMP_pressure;BME280_temperature;BME280_humidity;BME280_pressure;Samples;Min_cycle;Max_cycle;Signal;HPM_P1;HPM_P2
2022/09/27 00:02:03;;;;;;;3.38;1.25;;;11.60;99.90;;;;;;5019371;28;20029;-35
2022/09/27 00:04:29;;;;;;;1.55;1.30;;;11.60;99.90;;;;;;5017992;28;20117;-37
2022/09/27 00:06:54;;;;;;;1.20;1.10;;;11.60;99.90;;;;;;5016932;28;20156;-35
2022/09/27 00:09:20;;;;;;;2.13;1.20;;;11.50;99.90;;;;;;5019014;28;20038;-32
2022/09/27 00:11:46;;;;;;;1.23;1.02;;;11.50;99.90;;;;;;5015907;28;20036;-36
2022/09/27 00:14:16;;;;;;;1.70;1.10;;;11.50;99.90;;;;;;5018110;28;20033;-33
2022/09/27 00:16:43;;;;;;;1.15;1.13;;;11.60;99.90;;;;;;5018578;28;20026;-33
2022/09/27 00:19:18;;;;;;;1.42;1.20;;;11.50;99.90;;;;;;5016409;28;22153;-35
2022/09/27 00:21:46;;;;;;;2.90;1.30;;;11.50;99.90;;;;;;5016553;28;20052;-33
2022/09/27 00:24:13;;;;;;;1.10;1.10;;;11.40;99.90;;;;;;5008698;28;20115;-33
2022/09/27 00:26:39;;;;;;;1.55;1.30;;;11.40;99.90;;;;;;5019120;28;20029;-31
2022/09/27 00:29:05;;;;;;;1.73;1.17;;;11.40;99.90;;;;;;5015848;28;20049;-34
2022/09/27 00:31:31;;;;;;;2.15;1.50;;;11.40;99.90;;;;;;5017834;28;20045;-33
2022/09/27 00:34:00;;;;;;;3.17;1.40;;;11.30;99.90;;;;;;5018943;28;20512;-33
2022/09/27 00:36:26;;;;;;;1.20;1.10;;;11.30;99.90;;;;;;5017589;28;20036;-36
2022/09/27 00:38:53;;;;;;;1.90;1.20;;;11.30;99.90;;;;;;5018287;28;20148;-33
2022/09/27 00:41:21;;;;;;;1.40;1.00;;;11.30;99.90;;;;;;5018179;28;20774;-33
2022/09/27 00:43:57;;;;;;;;;;;11.30;99.90;;;;;;5018377;28;20084;-37
2022/09/27 00:46:39;;;;;;;1.98;1.25;;;11.20;99.90;;;;;;5028215;28;21925;-33
2022/09/27 00:49:11;;;;;;;1.15;1.08;;;11.20;99.90;;;;;;5016878;28;20087;-35
2022/09/27 00:51:38;;;;;;;2.45;1.20;;;11.20;99.90;;;;;;5017478;28;20033;-33
2022/09/27 00:54:06;;;;;;;2.10;1.13;;;11.10;99.90;;;;;;5021822;28;20413;-32
2022/09/27 00:56:32;;;;;;;1.88;1.40;;;11.00;99.90;;;;;;5020146;28;20099;-36
2022/09/27 00:59:07;;;;;;;2.40;1.40;;;11.00;99.90;;;;;;5021040;28;20029;-37
2022/09/27 01:01:33;;;;;;;1.05;1.00;;;11.00;99.90;;;;;;5018763;28;20194;-41
2022/09/27 01:04:04;;;;;;;1.23;0.90;;;10.90;99.90;;;;;;5018815;28;20045;-42
2022/09/27 01:06:30;;;;;;;2.92;1.40;;;10.90;99.90;;;;;;5019520;28;20021;-39
2022/09/27 01:08:56;;;;;;;1.65;1.05;;;10.80;99.90;;;;;;5021853;28;20090;-40
2022/09/27 01:11:39;;;;;;;1.30;0.88;;;10.80;99.90;;;;;;5020608;28;20554;-41
2022/09/27 01:14:26;;;;;;;0.93;0.90;;;10.80;99.90;;;;;;5018478;28;20037;-41
2022/09/27 01:16:52;;;;;;;1.50;1.00;;;10.80;99.90;;;;;;5017126;28;20044;-40
2022/09/27 01:19:44;;;;;;;1.77;1.20;;;10.80;99.90;;;;;;5022097;28;20033;-39
2022/09/27 01:22:59;;;;;;;1.45;1.30;;;10.80;99.90;;;;;;5019493;28;20153;-40
2022/09/27 01:25:51;;;;;;;1.17;1.08;;;10.80;99.90;;;;;;4919554;28;20035;-42
2022/09/27 01:28:31;;;;;;;0.85;0.85;;;10.80;99.90;;;;;;4938178;28;20127;-41
2022/09/27 01:31:06;;;;;;;1.17;1.08;;;10.60;99.90;;;;;;5006325;28;20525;-39
2022/09/27 01:34:09;;;;;;;1.35;1.02;;;10.60;99.90;;;;;;5019049;28;20072;-39
2022/09/27 01:37:07;;;;;;;1.23;1.10;;;10.60;99.90;;;;;;5018100;28;20068;-41
2022/09/27 01:39:35;;;;;;;1.15;0.90;;;10.60;99.90;;;;;;5019151;28;20487;-42
2022/09/27 01:42:01;;;;;;;;;;;10.60;99.90;;;;;;5021356;28;20032;-41
2022/09/27 01:44:48;;;;;;;1.00;0.90;;;10.60;99.90;;;;;;5018656;28;19910;-39
2022/09/27 01:47:18;;;;;;;0.80;0.60;;;10.50;99.90;;;;;;5023017;28;20064;-41
2022/09/27 01:50:06;;;;;;;0.75;0.75;;;10.40;99.90;;;;;;5018844;28;20045;-42
2022/09/27 01:52:53;;;;;;;0.90;0.90;;;10.40;99.90;;;;;;5021703;28;20037;-41
2022/09/27 01:55:23;;;;;;;1.65;0.88;;;10.40;99.90;;;;;;5018485;28;20029;-42
2022/09/27 01:58:09;;;;;;;1.10;1.10;;;10.40;99.90;;;;;;5019930;28;20032;-42
2022/09/27 02:00:37;;;;;;;0.95;0.90;;;10.40;99.90;;;;;;5020237;28;20030;-37
2022/09/27 02:03:17;;;;;;;0.80;0.80;;;10.30;99.90;;;;;;5020495;28;20057;-42
2022/09/27 02:05:49;;;;;;;0.60;0.60;;;10.30;99.90;;;;;;5019316;28;20021;-42
2022/09/27 02:08:37;;;;;;;4.93;1.20;;;10.20;99.90;;;;;;5017677;28;20033;-42
2022/09/27 02:11:07;;;;;;;0.67;0.67;;;10.20;99.90;;;;;;5020144;28;20037;-41
2022/09/27 02:13:45;;;;;;;0.90;0.90;;;10.30;99.90;;;;;;5018290;28;20187;-39
2022/09/27 02:16:36;;;;;;;0.75;0.75;;;10.20;99.90;;;;;;5020263;28;20132;-37
2022/09/27 02:19:10;;;;;;;0.80;0.70;;;10.30;99.90;;;;;;5019044;28;20391;-41
2022/09/27 02:21:58;;;;;;;1.58;0.90;;;10.20;99.90;;;;;;5018584;28;20129;-40
2022/09/27 02:24:36;;;;;;;0.85;0.85;;;10.30;99.90;;;;;;5019381;28;20033;-40
2022/09/27 02:27:17;;;;;;;1.00;1.00;;;10.20;99.90;;;;;;5018657;28;20034;-42
2022/09/27 02:29:50;;;;;;;2.22;1.15;;;10.20;99.90;;;;;;5017642;28;20040;-38
2022/09/27 02:32:16;;;;;;;3.67;1.30;;;10.20;99.90;;;;;;5017927;28;20137;-40
2022/09/27 02:34:43;;;;;;;0.82;0.70;;;10.20;99.90;;;;;;5017829;28;20044;-40
2022/09/27 02:37:10;;;;;;;1.00;0.90;;;10.20;99.90;;;;;;5017201;28;20063;-41
2022/09/27 02:39:36;;;;;;;1.70;0.95;;;10.20;99.90;;;;;;5018218;28;20038;-41
2022/09/27 02:42:03;;;;;;;1.38;0.88;;;10.10;99.90;;;;;;5021155;28;20124;-40
2022/09/27 02:44:29;;;;;;;0.77;0.77;;;10.10;99.90;;;;;;5018819;28;20037;-41
2022/09/27 02:47:37;;;;;;;1.23;0.85;;;10.10;99.90;;;;;;5019567;28;20514;-40
2022/09/27 02:50:25;;;;;;;0.50;0.50;;;10.10;99.90;;;;;;5019273;28;20379;-40
2022/09/27 02:53:28;;;;;;;1.75;0.88;;;10.10;99.90;;;;;;5018560;28;20076;-40
2022/09/27 02:56:23;;;;;;;1.45;1.35;;;10.10;99.90;;;;;;5016791;28;20034;-41
2022/09/27 02:59:04;;;;;;;1.10;1.00;;;10.10;99.90;;;;;;5020650;28;20388;-40
2022/09/27 03:01:30;;;;;;;2.17;1.00;;;10.10;99.90;;;;;;5017983;28;20378;-39
2022/09/27 03:04:11;;;;;;;1.20;1.13;;;10.20;99.90;;;;;;5019540;28;20029;-42
2022/09/27 03:06:40;;;;;;;1.77;1.13;;;10.10;99.90;;;;;;5018635;28;20034;-42
2022/09/27 03:09:19;;;;;;;1.42;1.17;;;10.10;99.90;;;;;;5018118;28;20176;-42
2022/09/27 03:11:44;;;;;;;1.20;1.15;;;10.10;99.90;;;;;;5020654;28;20718;-39
2022/09/27 03:14:10;;;;;;;0.90;0.90;;;10.10;99.90;;;;;;5014846;28;20033;-40
2022/09/27 03:16:36;;;;;;;1.35;1.05;;;10.10;99.90;;;;;;5016010;28;20486;-39
2022/09/27 03:19:01;;;;;;;1.90;0.93;;;10.20;99.90;;;;;;5019225;28;20040;-39
2022/09/27 03:21:28;;;;;;;1.52;0.75;;;10.20;99.90;;;;;;5019077;28;20056;-42
2022/09/27 03:23:53;;;;;;;1.17;1.08;;;10.10;99.90;;;;;;5018414;28;20049;-41
2022/09/27 03:26:19;;;;;;;3.17;1.27;;;10.20;99.90;;;;;;5017944;28;20052;-41
2022/09/27 03:28:44;;;;;;;1.35;0.93;;;10.20;99.90;;;;;;5017296;28;20037;-42
2022/09/27 03:31:10;;;;;;;1.30;1.10;;;10.20;99.90;;;;;;5016832;28;20662;-39
2022/09/27 03:33:36;;;;;;;1.58;1.00;;;10.20;99.90;;;;;;5018220;28;20065;-38
2022/09/27 03:36:03;;;;;;;0.70;0.70;;;10.20;99.90;;;;;;5017540;28;20568;-40
2022/09/27 03:38:28;;;;;;;0.90;0.90;;;10.10;99.90;;;;;;5017346;28;20041;-42
2022/09/27 03:40:54;;;;;;;2.40;1.00;;;10.10;99.90;;;;;;5015933;28;20033;-37
2022/09/27 03:43:20;;;;;;;2.97;1.40;;;10.10;99.90;;;;;;5020110;28;20541;-40
2022/09/27 03:45:46;;;;;;;1.45;1.00;;;10.20;99.90;;;;;;5018197;28;20071;-42
2022/09/27 03:48:11;;;;;;;1.38;1.10;;;10.10;99.90;;;;;;5018009;28;20046;-38
2022/09/27 03:50:37;;;;;;;1.08;0.95;;;10.10;99.90;;;;;;5023662;28;20402;-39
2022/09/27 03:53:03;;;;;;;0.77;0.77;;;10.10;99.90;;;;;;5022086;28;20044;-39
2022/09/27 03:55:28;;;;;;;1.13;0.88;;;10.10;99.90;;;;;;5018162;28;20041;-43
2022/09/27 03:57:54;;;;;;;1.45;1.35;;;10.10;99.90;;;;;;5020772;28;20062;-42
2022/09/27 04:00:20;;;;;;;0.75;0.75;;;10.10;99.90;;;;;;5015061;28;20025;-40
2022/09/27 04:02:46;;;;;;;1.35;1.10;;;10.10;99.90;;;;;;5018932;28;22160;-42
2022/09/27 04:05:12;;;;;;;0.73;0.73;;;10.10;99.90;;;;;;5017794;28;20037;-39
2022/09/27 04:07:38;;;;;;;0.93;0.88;;;10.10;99.90;;;;;;5018947;28;20030;-40
2022/09/27 04:10:04;;;;;;;0.90;0.90;;;10.10;99.90;;;;;;5019441;28;20037;-42
2022/09/27 04:12:29;;;;;;;1.00;0.90;;;10.10;99.90;;;;;;5018107;28;20029;-42
2022/09/27 04:14:55;;;;;;;1.20;1.10;;;10.10;99.90;;;;;;5018579;28;20033;-42
2022/09/27 04:17:21;;;;;;;1.02;0.98;;;10.20;99.90;;;;;;5018064;28;20371;-40
2022/09/27 04:19:46;;;;;;;1.50;1.02;;;10.10;99.90;;;;;;5017340;28;20070;-40
2022/09/27 04:22:12;;;;;;;0.98;0.93;;;10.10;99.90;;;;;;5017288;28;20533;-42
2022/09/27 04:24:38;;;;;;;1.67;0.90;;;10.10;99.90;;;;;;5015152;28;20068;-41
2022/09/27 04:27:04;;;;;;;0.82;0.82;;;10.20;99.90;;;;;;5016386;28;20033;-42
2022/09/27 04:29:30;;;;;;;1.00;0.90;;;10.20;99.90;;;;;;5021222;28;20030;-42
2022/09/27 04:31:56;;;;;;;0.98;0.98;;;10.20;99.90;;;;;;5020920;28;20053;-38
2022/09/27 04:36:25;;;;;;;1.30;0.85;;;10.20;99.90;;;;;;5021668;28;20601;-41
2022/09/27 04:37:08;;;;;;;1.10;1.00;;;10.20;99.90;;;;;;5020445;28;20030;-37
2022/09/27 04:39:35;;;;;;;0.80;0.80;;;10.20;99.90;;;;;;5021246;28;20064;-38
2022/09/27 04:42:01;;;;;;;0.65;0.65;;;10.30;99.90;;;;;;5024121;28;20543;-39
2022/09/27 04:44:27;;;;;;;0.93;0.90;;;10.30;99.90;;;;;;5022687;28;20033;-41
2022/09/27 04:46:53;;;;;;;0.82;0.82;;;10.30;99.90;;;;;;5022841;28;20082;-42
2022/09/27 04:49:18;;;;;;;0.90;0.90;;;10.30;99.90;;;;;;5022519;28;20040;-38
2022/09/27 04:51:44;;;;;;;0.80;0.80;;;10.30;99.90;;;;;;5019912;28;22367;-38
2022/09/27 04:54:09;;;;;;;0.73;0.73;;;10.30;99.90;;;;;;5020605;28;20037;-42
2022/09/27 04:56:35;;;;;;;8.73;1.30;;;10.30;99.90;;;;;;5021555;28;20044;-42
2022/09/27 04:59:01;;;;;;;0.65;0.65;;;10.20;99.90;;;;;;5020937;28;20598;-38
2022/09/27 05:01:26;;;;;;;0.77;0.77;;;10.10;99.90;;;;;;5020878;28;20034;-37
2022/09/27 05:03:52;;;;;;;0.80;0.80;;;10.10;99.90;;;;;;5020397;28;20069;-39
2022/09/27 05:06:18;;;;;;;0.65;0.65;;;10.10;99.90;;;;;;5021833;28;20491;-42
2022/09/27 05:08:44;;;;;;;1.60;1.10;;;10.10;99.90;;;;;;5021095;28;20041;-42
2022/09/27 05:11:10;;;;;;;0.95;0.73;;;10.00;99.90;;;;;;5020183;28;20045;-39
2022/09/27 05:13:35;;;;;;;0.95;0.82;;;10.10;99.90;;;;;;5023639;28;20087;-42
2022/09/27 05:16:03;;;;;;;0.70;0.60;;;10.00;99.90;;;;;;5019244;28;20026;-40
2022/09/27 05:18:28;;;;;;;1.40;0.60;;;10.00;99.90;;;;;;5018988;28;20037;-40
2022/09/27 05:20:55;;;;;;;0.73;0.60;;;10.00;99.90;;;;;;5019856;28;20103;-41
2022/09/27 05:23:21;;;;;;;0.52;0.52;;;10.00;99.90;;;;;;5022681;28;20083;-40
2022/09/27 05:25:47;;;;;;;0.68;0.60;;;9.90;99.90;;;;;;5018513;28;20038;-42
2022/09/27 05:28:12;;;;;;;0.60;0.60;;;9.80;99.90;;;;;;5017123;28;20034;-39
2022/09/27 05:30:38;;;;;;;1.13;0.60;;;9.80;99.90;;;;;;5017308;28;20597;-41
2022/09/27 05:33:03;;;;;;;2.10;0.77;;;9.80;99.90;;;;;;5021469;28;20051;-42
2022/09/27 05:35:30;;;;;;;0.80;0.70;;;9.70;99.90;;;;;;5024865;28;20057;-38
2022/09/27 05:37:59;;;;;;;0.93;0.80;;;9.70;99.90;;;;;;5017927;28;20025;-40
2022/09/27 05:40:25;;;;;;;0.60;0.60;;;9.70;99.90;;;;;;5017558;28;20025;-40
2022/09/27 05:42:52;;;;;;;0.65;0.60;;;9.70;99.90;;;;;;5021924;28;20061;-39
2022/09/27 05:45:19;;;;;;;0.52;0.52;;;9.60;99.90;;;;;;5019975;28;20040;-42
2022/09/27 05:47:55;;;;;;;1.23;0.90;;;9.60;99.90;;;;;;5018909;28;20068;-42
2022/09/27 05:50:21;;;;;;;1.90;1.60;;;9.60;99.90;;;;;;5018195;28;20033;-42
2022/09/27 05:52:48;;;;;;;1.17;0.82;;;9.60;99.90;;;;;;5018378;28;20030;-41
2022/09/27 05:55:14;;;;;;;0.65;0.65;;;9.60;99.90;;;;;;5014473;28;20874;-40
2022/09/27 05:57:39;;;;;;;1.05;0.80;;;9.60;99.90;;;;;;5019946;28;20034;-40
2022/09/27 06:00:06;;;;;;;1.13;0.77;;;9.60;99.90;;;;;;5019236;28;20041;-40
2022/09/27 06:02:33;;;;;;;2.75;0.93;;;9.60;99.90;;;;;;5017255;28;20518;-42
2022/09/27 06:04:59;;;;;;;0.68;0.68;;;9.70;99.90;;;;;;5018955;28;20029;-42
2022/09/27 06:07:27;;;;;;;1.45;0.70;;;9.70;99.90;;;;;;5017606;28;20753;-42
2022/09/27 06:09:53;;;;;;;0.95;0.80;;;9.70;99.90;;;;;;5017201;28;20729;-37
2022/09/27 06:12:19;;;;;;;0.68;0.68;;;9.80;99.90;;;;;;5016843;28;20071;-41
2022/09/27 06:14:44;;;;;;;0.73;0.73;;;9.80;99.90;;;;;;5020214;28;20033;-42
2022/09/27 06:17:10;;;;;;;1.23;0.77;;;9.80;99.90;;;;;;5016804;28;20049;-40
2022/09/27 06:19:36;;;;;;;1.40;0.88;;;9.80;99.90;;;;;;5016542;28;20104;-41
2022/09/27 06:22:01;;;;;;;2.03;1.30;;;9.90;99.90;;;;;;5014824;28;20021;-41
2022/09/27 06:24:27;;;;;;;2.33;0.85;;;9.90;99.90;;;;;;5016797;28;20029;-39
2022/09/27 06:26:53;;;;;;;0.68;0.52;;;10.00;99.90;;;;;;5018789;28;20489;-40
2022/09/27 06:29:19;;;;;;;2.47;0.82;;;10.10;99.90;;;;;;5019518;28;20047;-42
2022/09/27 06:31:44;;;;;;;0.88;0.80;;;10.10;99.90;;;;;;5018986;28;20053;-42
2022/09/27 06:34:10;;;;;;;2.17;1.08;;;10.10;99.90;;;;;;5019729;28;20035;-42
2022/09/27 06:36:35;;;;;;;0.80;0.80;;;10.20;99.90;;;;;;5019146;28;20475;-40
2022/09/27 06:39:01;;;;;;;1.02;0.85;;;10.10;99.90;;;;;;5020613;28;20025;-40
2022/09/27 06:41:27;;;;;;;1.40;0.80;;;10.20;99.90;;;;;;5020794;28;20071;-41
2022/09/27 06:43:52;;;;;;;1.33;0.70;;;10.30;99.90;;;;;;5021889;28;20045;-39
2022/09/27 06:46:18;;;;;;;0.90;0.90;;;10.30;99.90;;;;;;5017920;28;20639;-39
2022/09/27 06:48:44;;;;;;;1.42;0.80;;;10.40;99.90;;;;;;5020848;28;20037;-42
2022/09/27 06:51:09;;;;;;;1.23;0.80;;;10.40;99.90;;;;;;5018493;28;20072;-40
2022/09/27 06:53:35;;;;;;;0.82;0.82;;;10.40;99.90;;;;;;5017554;28;20564;-40
2022/09/27 06:56:01;;;;;;;0.70;0.70;;;10.40;99.90;;;;;;5020398;28;20033;-42
2022/09/27 07:01:13;;;;;;;0.93;0.88;;;10.40;99.90;;;;;;5017905;28;20556;-37
2022/09/27 07:03:40;;;;;;;3.45;1.35;;;10.30;99.90;;;;;;5017204;28;20033;-42
2022/09/27 07:06:10;;;;;;;1.40;0.87;;;10.30;99.90;;;;;;5018411;28;20044;-40
2022/09/27 07:08:37;;;;;;;1.40;0.85;;;10.40;99.90;;;;;;5018273;28;20465;-37
2022/09/27 07:11:05;;;;;;;1.55;0.90;;;10.30;99.90;;;;;;5019172;28;20026;-42
2022/09/27 07:13:33;;;;;;;3.47;0.93;;;10.20;99.90;;;;;;5019829;28;20030;-39
2022/09/27 07:16:00;;;;;;;1.38;0.70;;;10.10;99.90;;;;;;5019400;28;20583;-41
2022/09/27 07:18:26;;;;;;;0.90;0.90;;;10.10;99.90;;;;;;5019611;28;20482;-41
2022/09/27 07:20:52;;;;;;;0.80;0.80;;;9.90;99.90;;;;;;5018596;28;20427;-42
2022/09/27 07:23:18;;;;;;;0.52;0.52;;;9.80;99.90;;;;;;5017877;28;20537;-39
2022/09/27 07:25:44;;;;;;;0.82;0.80;;;9.70;99.90;;;;;;5019291;28;20529;-41
2022/09/27 07:28:15;;;;;;;1.38;0.68;;;9.60;99.90;;;;;;5017481;28;20033;-42
2022/09/27 07:30:42;;;;;;;0.90;0.90;;;9.60;99.90;;;;;;5017905;28;20042;-38
2022/09/27 07:33:08;;;;;;;0.88;0.88;;;9.70;99.90;;;;;;5019123;28;20045;-42
2022/09/27 07:35:38;;;;;;;0.55;0.55;;;9.80;99.90;;;;;;5018785;28;20040;-41
2022/09/27 07:38:04;;;;;;;0.77;0.60;;;9.80;99.90;;;;;;5020454;28;20510;-42
2022/09/27 07:40:30;;;;;;;0.52;0.52;;;9.80;99.90;;;;;;5021453;28;20083;-41
2022/09/27 07:42:57;;;;;;;1.08;0.73;;;9.80;99.90;;;;;;5019245;28;20714;-40
2022/09/27 07:45:24;;;;;;;2.83;0.80;;;9.80;99.90;;;;;;5019117;28;20033;-42
2022/09/27 07:47:50;;;;;;;1.80;0.80;;;9.90;99.90;;;;;;5017858;28;20033;-40
2022/09/27 07:50:16;;;;;;;0.80;0.80;;;10.00;99.90;;;;;;5016986;28;20494;-42
2022/09/27 07:52:44;;;;;;;0.57;0.57;;;10.10;99.90;;;;;;5019737;28;20041;-42
2022/09/27 07:55:12;;;;;;;0.60;0.55;;;10.30;99.90;;;;;;5018085;28;20612;-39
2022/09/27 07:57:37;;;;;;;0.85;0.80;;;10.50;99.90;;;;;;5019508;28;20037;-40
2022/09/27 08:00:05;;;;;;;0.40;0.40;;;10.40;99.90;;;;;;5019939;28;20802;-42
2022/09/27 08:02:31;;;;;;;0.85;0.60;;;10.30;99.90;;;;;;5019051;28;20034;-41
2022/09/27 08:04:58;;;;;;;0.70;0.70;;;10.30;99.90;;;;;;5023427;28;20372;-41
2022/09/27 08:07:24;;;;;;;0.60;0.60;;;10.10;99.90;;;;;;5022316;28;20084;-41
2022/09/27 08:09:50;;;;;;;0.57;0.57;;;10.20;99.90;;;;;;5023604;28;20841;-41
2022/09/27 08:12:16;;;;;;;0.82;0.70;;;10.00;99.90;;;;;;5023082;28;20056;-37
2022/09/27 08:14:42;;;;;;;1.83;0.80;;;10.10;99.90;;;;;;5019839;28;20033;-39
2022/09/27 08:17:11;;;;;;;0.70;0.70;;;10.00;99.90;;;;;;5021485;28;20530;-41
2022/09/27 08:19:37;;;;;;;0.47;0.47;;;10.00;99.90;;;;;;5021674;28;20030;-38
2022/09/27 08:22:02;;;;;;;1.00;0.60;;;10.10;99.90;;;;;;5022825;28;20384;-42
2022/09/27 08:24:28;;;;;;;1.90;1.23;;;10.10;99.90;;;;;;5024056;28;20035;-41
2022/09/27 08:26:54;;;;;;;1.23;0.73;;;10.10;99.90;;;;;;5021054;28;20029;-38
2022/09/27 08:29:19;;;;;;;1.38;0.80;;;10.20;99.90;;;;;;5022033;28;20091;-39
2022/09/27 08:31:45;;;;;;;0.88;0.88;;;10.20;99.90;;;;;;5024399;28;20033;-41
2022/09/27 08:34:11;;;;;;;1.45;0.73;;;10.30;99.90;;;;;;5021972;28;20041;-42
2022/09/27 08:36:36;;;;;;;0.80;0.80;;;10.60;99.90;;;;;;5022429;28;20781;-42
2022/09/27 08:39:03;;;;;;;1.52;0.63;;;10.90;99.90;;;;;;5025130;28;20032;-40
2022/09/27 08:41:40;;;;;;;1.48;0.60;;;10.70;99.90;;;;;;5021640;28;20033;-42
2022/09/27 08:44:05;;;;;;;0.50;0.50;;;10.50;99.90;;;;;;5024807;28;20037;-42
2022/09/27 08:46:52;;;;;;;1.23;1.23;;;10.40;99.90;;;;;;5020373;28;20939;-40
2022/09/27 08:49:52;;;;;;;1.05;0.55;;;10.50;99.90;;;;;;5023105;28;20061;-42
2022/09/27 08:52:33;;;;;;;0.50;0.50;;;10.60;99.90;;;;;;5007495;28;20052;-40
2022/09/27 08:55:05;;;;;;;0.40;0.40;;;10.50;99.90;;;;;;5023856;28;20025;-39
2022/09/27 08:57:30;;;;;;;5.38;0.50;;;10.60;99.90;;;;;;5020764;28;20036;-40
2022/09/27 09:00:10;;;;;;;0.52;0.50;;;10.60;99.90;;;;;;5025050;28;20429;-39
2022/09/27 09:02:36;;;;;;;0.98;0.63;;;10.70;99.90;;;;;;5021543;28;20494;-40
2022/09/27 09:05:12;;;;;;;0.70;0.50;;;10.70;99.90;;;;;;5022187;28;20108;-40
2022/09/27 09:08:15;;;;;;;0.50;0.50;;;10.70;99.90;;;;;;5024108;28;20041;-39
2022/09/27 09:14:04;;;;;;;1.10;0.50;;;10.60;99.90;;;;;;5026634;28;20231;-40
2022/09/27 09:16:39;;;;;;;0.60;0.60;;;10.70;99.90;;;;;;5021618;28;20616;-40
2022/09/27 09:19:33;;;;;;;0.60;0.60;;;11.10;99.90;;;;;;5025368;28;20059;-40
2022/09/27 09:22:04;;;;;;;0.47;0.47;;;11.10;99.90;;;;;;5025325;28;20049;-42
2022/09/27 09:24:42;;;;;;;0.68;0.68;;;10.70;99.90;;;;;;5025000;28;20394;-40
2022/09/27 09:27:27;;;;;;;1.52;0.60;;;10.70;99.90;;;;;;5022750;28;20037;-37
2022/09/27 09:30:24;;;;;;;0.50;0.50;;;10.80;99.90;;;;;;5021435;28;20033;-42
2022/09/27 09:32:50;;;;;;;0.68;0.60;;;10.80;99.90;;;;;;5023711;28;20076;-41
2022/09/27 09:35:30;;;;;;;0.30;0.30;;;10.80;99.90;;;;;;5022385;28;20025;-41
2022/09/27 09:38:00;;;;;;;0.25;0.25;;;10.80;99.90;;;;;;5024673;28;20061;-38
2022/09/27 09:40:44;;;;;;;0.40;0.35;;;10.90;99.90;;;;;;5023226;28;20041;-42
2022/09/27 09:43:15;;;;;;;0.40;0.40;;;11.10;99.90;;;;;;5020568;28;20028;-39
2022/09/27 09:45:44;;;;;;;0.40;0.40;;;11.10;99.90;;;;;;5019450;28;20033;-42
2022/09/27 09:48:31;;;;;;;1.00;0.47;;;11.10;99.90;;;;;;5021403;28;20024;-42
2022/09/27 09:51:01;;;;;;;1.17;0.50;;;11.00;99.90;;;;;;5018695;28;20041;-39
2022/09/27 09:53:54;;;;;;;0.30;0.30;;;11.00;99.90;;;;;;5018814;28;20037;-40
2022/09/27 09:56:25;;;;;;;0.38;0.38;;;11.10;99.90;;;;;;5020184;28;20035;-42
2022/09/27 09:59:04;;;;;;;0.52;0.40;;;11.20;99.90;;;;;;5020158;28;20475;-40
2022/09/27 10:01:34;;;;;;;0.40;0.40;;;11.30;99.90;;;;;;5019648;28;20628;-42
2022/09/27 10:03:59;;;;;;;0.70;0.70;;;11.20;99.90;;;;;;5018862;28;20037;-42
2022/09/27 10:06:27;;;;;;;0.35;0.35;;;11.10;99.90;;;;;;5018943;28;20041;-42
2022/09/27 10:08:54;;;;;;;0.80;0.52;;;11.10;99.90;;;;;;5021662;28;21144;-42
2022/09/27 10:11:26;;;;;;;0.85;0.43;;;11.10;99.90;;;;;;5020970;28;20040;-40
2022/09/27 10:13:54;;;;;;;0.38;0.38;;;11.40;99.90;;;;;;5019941;28;20450;-40
2022/09/27 10:16:21;;;;;;;0.50;0.50;;;11.40;99.90;;;;;;5017230;28;20048;-40
2022/09/27 10:18:49;;;;;;;0.73;0.50;;;11.30;99.90;;;;;;5019435;28;20061;-42
2022/09/27 10:21:24;;;;;;;0.43;0.43;;;11.10;99.90;;;;;;5019758;28;20477;-41
2022/09/27 10:24:12;;;;;;;0.47;0.47;;;11.30;99.90;;;;;;5017135;28;20037;-39
2022/09/27 10:26:42;;;;;;;0.65;0.65;;;11.60;99.90;;;;;;5020253;28;20029;-40
2022/09/27 10:29:22;;;;;;;0.40;0.40;;;11.80;99.90;;;;;;5018259;28;20118;-41
2022/09/27 10:31:49;;;;;;;0.45;0.45;;;12.10;99.90;;;;;;5019191;28;20041;-42
2022/09/27 10:34:25;;;;;;;0.60;0.50;;;12.10;99.50;;;;;;5019896;28;20414;-42
2022/09/27 10:37:07;;;;;;;0.52;0.52;;;12.00;99.90;;;;;;5020279;28;20083;-42
2022/09/27 10:39:35;;;;;;;0.77;0.40;;;12.10;99.90;;;;;;5025305;28;20127;-41
2022/09/27 10:42:01;;;;;;;2.30;0.60;;;12.10;99.90;;;;;;5022994;28;20544;-42
2022/09/27 10:44:30;;;;;;;0.85;0.52;;;12.30;99.90;;;;;;5016305;28;20033;-41
2022/09/27 10:47:06;;;;;;;0.40;0.40;;;11.90;95.60;;;;;;5025070;28;20487;-40
2022/09/27 10:49:34;;;;;;;1.38;0.40;;;11.70;98.80;;;;;;5018631;28;20026;-39
2022/09/27 10:52:03;;;;;;;0.43;0.43;;;11.50;97.30;;;;;;5020160;28;20029;-39
2022/09/27 10:54:33;;;;;;;1.02;0.55;;;11.40;98.00;;;;;;5023417;28;20030;-37
2022/09/27 10:57:12;;;;;;;0.50;0.50;;;11.30;99.70;;;;;;5020945;28;20021;-39
2022/09/27 10:59:41;;;;;;;0.38;0.38;;;11.30;99.90;;;;;;5022707;28;20025;-36
2022/09/27 11:02:31;;;;;;;1.05;0.60;;;11.10;99.90;;;;;;5020360;28;20108;-39
2022/09/27 11:05:06;;;;;;;0.45;0.45;;;11.20;99.90;;;;;;5012823;28;20065;-39
2022/09/27 11:07:35;;;;;;;0.70;0.40;;;11.10;99.90;;;;;;5014731;28;20029;-35
2022/09/27 11:10:03;;;;;;;0.70;0.70;;;10.80;99.90;;;;;;5020800;28;20029;-38
2022/09/27 11:12:30;;;;;;;0.77;0.77;;;10.60;99.90;;;;;;5023846;28;20040;-39
2022/09/27 11:15:08;;;;;;;0.73;0.73;;;10.30;99.90;;;;;;5022044;28;20475;-37
2022/09/27 11:17:44;;;;;;;0.40;0.40;;;10.40;99.90;;;;;;5020959;28;20744;-39
2022/09/27 11:20:40;;;;;;;0.38;0.38;;;10.20;99.90;;;;;;5022969;28;20100;-39
2022/09/27 11:23:24;;;;;;;0.40;0.35;;;10.20;99.90;;;;;;5023928;28;20076;-40
2022/09/27 11:26:06;;;;;;;1.33;0.60;;;10.10;99.90;;;;;;5018672;28;20032;-38
2022/09/27 11:28:57;;;;;;;1.10;0.70;;;10.10;99.90;;;;;;5023386;28;20026;-36
2022/09/27 11:31:26;;;;;;;0.45;0.45;;;10.30;99.90;;;;;;5019484;28;20056;-40
2022/09/27 11:34:16;;;;;;;0.68;0.60;;;10.40;99.90;;;;;;5018270;28;20042;-39
2022/09/27 11:37:23;;;;;;;0.60;0.60;;;10.50;99.90;;;;;;5020577;28;20071;-40
2022/09/27 11:40:22;;;;;;;0.40;0.40;;;10.40;99.90;;;;;;5021596;28;20055;-38
2022/09/27 11:42:54;;;;;;;0.40;0.40;;;10.40;99.90;;;;;;5020809;28;20029;-40
2022/09/27 11:45:44;;;;;;;0.43;0.40;;;10.60;99.90;;;;;;5021976;28;20491;-39
2022/09/27 11:48:29;;;;;;;0.80;0.75;;;10.50;99.90;;;;;;5016600;28;20043;-40
2022/09/27 11:51:07;;;;;;;0.77;0.40;;;10.40;99.90;;;;;;5021931;28;20113;-40
2022/09/27 11:53:49;;;;;;;;;;;10.80;99.90;;;;;;5023283;28;20029;-39
2022/09/27 11:56:48;;;;;;;0.75;0.75;;;10.80;99.90;;;;;;5019115;28;19948;-36
2022/09/27 11:59:32;;;;;;;0.63;0.63;;;10.70;99.90;;;;;;5018546;28;20368;-40
2022/09/27 12:02:30;;;;;;;2.20;0.80;;;10.70;99.90;;;;;;5016183;28;20581;-40
2022/09/27 12:05:38;;;;;;;1.85;1.10;;;10.80;99.90;;;;;;5020004;28;20588;-38
2022/09/27 12:08:22;;;;;;;;;;;10.80;99.90;;;;;;5014961;28;20037;-38
2022/09/27 12:10:57;;;;;;;0.77;0.77;;;10.80;99.90;;;;;;5023812;28;19909;-39
2022/09/27 12:13:55;;;;;;;1.67;1.00;;;10.70;99.90;;;;;;5023107;28;20082;-40
2022/09/27 12:16:21;;;;;;;;;;;10.90;99.90;;;;;;5017706;28;20358;-37
2022/09/27 12:18:49;;;;;;;0.57;0.57;;;10.80;99.90;;;;;;5022012;28;19948;-40
2022/09/27 12:21:15;;;;;;;2.50;0.85;;;10.80;99.90;;;;;;5020514;28;20092;-39
2022/09/27 12:23:46;;;;;;;0.98;0.98;;;10.80;99.90;;;;;;5020168;28;20561;-37
2022/09/27 12:26:26;;;;;;;1.40;1.30;;;11.10;99.90;;;;;;5023409;28;20376;-38
2022/09/27 12:28:56;;;;;;;1.15;1.10;;;11.20;99.90;;;;;;5021122;28;20586;-40
2022/09/27 12:32:07;;;;;;;0.95;0.85;;;11.50;99.90;;;;;;5031639;28;20040;-39
2022/09/27 12:35:14;;;;;;;1.98;1.23;;;11.60;99.90;;;;;;5011674;28;20124;-38
2022/09/27 12:38:04;;;;;;;1.50;1.17;;;11.70;99.90;;;;;;5004719;28;20082;-38
2022/09/27 12:40:40;;;;;;;1.45;1.05;;;11.90;99.90;;;;;;5016386;28;20026;-39
2022/09/27 12:43:22;;;;;;;1.00;1.00;;;11.80;99.90;;;;;;5017580;28;20104;-39
2022/09/27 12:46:25;;;;;;;1.58;1.10;;;11.90;99.90;;;;;;5023992;28;20061;-40
2022/09/27 12:49:11;;;;;;;1.30;1.20;;;12.00;99.90;;;;;;5019783;28;20516;-40
2022/09/27 12:51:45;;;;;;;2.58;0.98;;;12.20;99.90;;;;;;5021510;28;20079;-37
2022/09/27 12:54:44;;;;;;;1.00;1.00;;;12.00;99.90;;;;;;5023761;28;20498;-40
2022/09/27 12:57:49;;;;;;;0.70;0.70;;;12.00;99.90;;;;;;5023599;28;20470;-40
2022/09/27 13:00:24;;;;;;;0.55;0.55;;;12.30;99.90;;;;;;5003797;28;20164;-39
2022/09/27 13:03:33;;;;;;;0.70;0.70;;;12.40;99.90;;;;;;5022392;28;20095;-40
2022/09/27 13:06:15;;;;;;;1.80;1.00;;;12.50;97.20;;;;;;5025004;28;20025;-40
2022/09/27 13:09:01;;;;;;;0.75;0.75;;;12.60;99.70;;;;;;5021872;28;20061;-40
2022/09/27 13:11:38;;;;;;;0.68;0.65;;;12.70;98.30;;;;;;5022076;28;20387;-39
2022/09/27 13:14:05;;;;;;;0.60;0.60;;;12.80;96.00;;;;;;5024794;28;20394;-39
2022/09/27 13:16:44;;;;;;;2.80;0.75;;;12.90;99.80;;;;;;5019710;28;20506;-40
2022/09/27 13:19:36;;;;;;;0.82;0.70;;;12.70;96.10;;;;;;5021494;28;20022;-39
2022/09/27 13:22:07;;;;;;;1.27;0.88;;;12.50;96.40;;;;;;5024212;28;20037;-40
2022/09/27 13:24:39;;;;;;;1.48;0.70;;;12.40;96.90;;;;;;5023848;28;20083;-40
2022/09/27 13:27:39;;;;;;;0.70;0.70;;;12.50;98.70;;;;;;5018384;28;20029;-40